Time;durP1;ratioP1;P1;durP2;ratioP2;P2;SDS_P1;SDS_P2;PMS_P1;PMS_P2;Temp;Humidity;BMP_temperature;BMP_pressure;BME280_temperature;BME280_humidity;BME280_pressure;Samples;Min_cycle;Max_cycle;Signal;HPM_P1;HPM_P2
2023/07/17 00:01:46;;;;;;;21.83;20.63;;;;;;;-141.02;100.00;42759.16;5127920;27;20247;-58
2023/07/17 00:04:13;;;;;;;21.00;19.80;;;;;;;-141.02;100.00;42571.03;5134701;27;20193;-60
2023/07/17 00:10:03;;;;;;;20.15;19.05;;;;;;;-141.02;100.00;42446.25;5134784;27;20199;-64
2023/07/17 00:12:31;;;;;;;20.73;19.52;;;;;;;-141.02;100.00;42478.88;5134827;27;20189;-60
2023/07/17 00:14:59;;;;;;;20.48;19.27;;;;;;;-141.02;100.00;42452.00;5134564;27;20283;-66
2023/07/17 00:17:48;;;;;;;20.08;18.88;;;;;;;-141.02;100.00;42503.84;5134743;27;20192;-58
2023/07/17 00:23:37;;;;;;;19.27;18.17;;;;;;;-141.02;100.00;42617.09;5134773;27;20240;-63
2023/07/17 00:30:05;;;;;;;18.33;17.33;;;;;;;-141.02;100.00;42816.75;5134260;27;20592;-61
2023/07/17 00:32:40;;;;;;;18.23;17.25;;;;;;;-141.02;100.00;42797.53;5133640;27;20283;-61
2023/07/17 00:35:28;;;;;;;17.88;16.98;;;;;;;-141.02;100.00;42759.16;5133361;27;20615;-60
2023/07/17 00:37:55;;;;;;;17.83;16.92;;;;;;;-141.02;100.00;42713.06;5134270;27;20632;-61
2023/07/17 00:41:05;;;;;;;17.65;16.75;;;;;;;-141.02;100.00;42667.00;5134331;27;20612;-60
2023/07/17 00:46:55;;;;;;;18.10;17.10;;;;;;;-141.02;100.00;42417.47;5134071;27;20211;-62
2023/07/17 00:53:15;;;;;;;18.15;17.20;;;;;;;-141.02;100.00;42095.00;5133808;27;20253;-65
2023/07/17 00:55:42;;;;;;;18.17;17.17;;;;;;;-141.02;100.00;42087.31;5133760;27;20193;-58
2023/07/17 00:58:12;;;;;;;19.00;18.00;;;;;;;-141.02;100.00;42052.78;5133984;27;20192;-61
2023/07/17 01:07:22;;;;;;;18.67;17.67;;;;;;;-141.02;100.00;41918.41;5133664;27;20266;-59
2023/07/17 01:13:13;;;;;;;17.58;16.67;;;;;;;-141.02;100.00;41891.56;5133528;27;20184;-60
2023/07/17 01:19:51;;;;;;;18.90;17.90;;;;;;;-141.02;99.79;41787.91;5124278;27;20246;-61
2023/07/17 01:23:06;;;;;;;19.17;18.17;;;;;;;-141.02;98.88;41670.84;5133285;27;20209;-64
2023/07/17 01:25:59;;;;;;;18.30;17.30;;;;;;;-141.02;98.90;41684.28;5133167;27;20192;-63
2023/07/17 01:32:02;;;;;;;18.98;17.98;;;;;;;-141.02;99.08;41572.97;5133273;27;20176;-64
2023/07/17 01:34:32;;;;;;;19.25;18.25;;;;;;;-141.02;98.67;41542.28;5133167;27;20192;-63
2023/07/17 01:40:36;;;;;;;19.80;18.70;;;;;;;-141.02;97.56;41434.81;5133258;27;20219;-66
2023/07/17 01:49:48;;;;;;;20.63;19.42;;;;;;;-141.02;95.18;41265.94;5133622;27;20586;-62
2023/07/17 01:52:14;;;;;;;19.77;18.67;;;;;;;-141.02;94.20;41216.06;5133119;27;20766;-66
2023/07/17 01:54:41;;;;;;;19.58;18.48;;;;;;;-141.02;93.61;41237.16;5133451;27;20286;-63
2023/07/17 01:57:08;;;;;;;19.40;18.30;;;;;;;-141.02;93.36;41214.13;5133025;28;20200;-61
2023/07/17 01:59:35;;;;;;;19.20;18.10;;;;;;;-141.02;93.16;41225.66;5133462;27;20223;-61
2023/07/17 02:02:02;;;;;;;19.67;18.58;;;;;;;-141.02;92.96;41262.09;5133021;27;20220;-59
2023/07/17 02:04:29;;;;;;;20.02;18.88;;;;;;;-141.02;92.02;41193.03;5133090;28;20224;-62
2023/07/17 02:06:57;;;;;;;20.35;19.17;;;;;;;-141.02;91.34;41198.78;5132740;28;20311;-61
2023/07/17 02:09:24;;;;;;;20.10;19.00;;;;;;;-141.02;91.16;41191.13;5132956;28;20275;-65
2023/07/17 02:11:51;;;;;;;20.60;19.40;;;;;;;-141.02;90.83;41185.34;5133119;28;20642;-63
2023/07/17 02:14:18;;;;;;;19.75;18.65;;;;;;;-141.02;91.13;41170.00;5132637;28;20193;-62
2023/07/17 02:19:59;;;;;;;19.83;18.73;;;;;;;-141.02;91.08;41148.91;5131384;27;20202;-62
2023/07/17 02:22:28;;;;;;;19.88;18.77;;;;;;;-141.02;91.47;41152.75;5132710;28;20222;-65
2023/07/17 02:24:56;;;;;;;19.80;18.70;;;;;;;-141.02;91.27;41158.50;5132850;28;20192;-62
2023/07/17 02:27:22;;;;;;;19.88;18.77;;;;;;;-141.02;91.69;41139.31;5132913;28;20227;-62
2023/07/17 02:29:50;;;;;;;20.08;18.98;;;;;;;-141.02;91.68;41175.75;5135529;27;20195;-63
2023/07/17 02:32:17;;;;;;;19.77;18.67;;;;;;;-141.02;91.42;41185.34;5136763;27;20733;-60
2023/07/17 02:34:44;;;;;;;20.05;18.95;;;;;;;-141.02;91.24;41170.00;5136804;27;20197;-65
2023/07/17 02:37:11;;;;;;;19.90;18.80;;;;;;;-141.02;91.60;41196.88;5136474;27;20670;-59
2023/07/17 02:39:39;;;;;;;19.92;18.83;;;;;;;-141.02;91.61;41196.88;5136766;27;20188;-62
2023/07/17 02:42:07;;;;;;;20.45;19.25;;;;;;;-141.02;91.71;41271.72;5136273;27;20698;-61
2023/07/17 02:44:34;;;;;;;19.90;18.70;;;;;;;-141.02;91.59;41288.97;5136528;27;20231;-61
2023/07/17 02:47:01;;;;;;;20.08;18.88;;;;;;;-141.02;91.44;41323.50;5136467;27;20215;-63
2023/07/17 02:49:27;;;;;;;19.67;18.58;;;;;;;-141.02;91.08;41430.97;5136574;27;20210;-59
2023/07/17 02:52:34;;;;;;;19.67;18.55;;;;;;;-141.02;91.07;41553.78;5136455;27;20189;-61
2023/07/17 03:01:45;;;;;;;19.40;18.30;;;;;;;-141.02;92.60;41933.78;5136083;27;20183;-60
2023/07/17 03:04:12;;;;;;;19.38;18.27;;;;;;;-141.02;93.01;42054.69;5135930;27;20750;-62
2023/07/17 03:07:20;;;;;;;18.40;17.40;;;;;;;-141.02;92.66;42167.94;5136152;27;20289;-64
2023/07/17 03:09:47;;;;;;;18.98;17.98;;;;;;;-141.02;93.23;42302.28;5135995;27;20283;-61
2023/07/17 03:12:16;;;;;;;18.60;17.60;;;;;;;-141.02;93.16;42421.28;5135803;27;20672;-66
2023/07/17 03:14:43;;;;;;;18.98;17.98;;;;;;;-141.02;92.84;42498.06;5135719;27;20640;-66
2023/07/17 03:17:55;;;;;;;18.65;17.65;;;;;;;-141.02;93.13;42613.25;5135685;27;20679;-59
2023/07/17 03:20:23;;;;;;;18.55;17.55;;;;;;;-141.02;92.84;42713.06;5135405;27;20239;-65
2023/07/17 03:22:50;;;;;;;18.70;17.70;;;;;;;-141.02;93.36;42809.06;5135543;27;20235;-63
2023/07/17 03:25:17;;;;;;;18.73;17.73;;;;;;;-141.02;93.39;42824.41;5135555;27;20644;-64
2023/07/17 03:27:44;;;;;;;18.75;17.75;;;;;;;-141.02;93.39;42885.84;5135834;27;20189;-65
2023/07/17 03:30:12;;;;;;;19.67;18.58;;;;;;;-141.02;93.52;42983.75;5135772;27;20271;-63
2023/07/17 03:32:39;;;;;;;18.95;17.95;;;;;;;-141.02;92.95;43012.56;5135726;27;20204;-62
2023/07/17 03:35:07;;;;;;;19.17;18.10;;;;;;;-141.02;92.48;43027.91;5135736;27;20251;-62
2023/07/17 03:37:36;;;;;;;19.30;18.20;;;;;;;-141.02;91.25;43033.69;5135640;27;20280;-58
2023/07/17 03:40:03;;;;;;;18.90;17.85;;;;;;;-141.02;91.21;43146.94;5134514;27;20192;-63
2023/07/17 03:42:31;;;;;;;19.42;18.33;;;;;;;-141.02;90.92;43527.13;5135164;27;20698;-64
2023/07/17 03:44:59;;;;;;;19.27;18.17;;;;;;;-141.02;90.29;43477.19;5135489;27;20192;-59
2023/07/17 03:47:26;;;;;;;20.08;18.88;;;;;;;-141.02;89.65;43730.66;5135158;27;20196;-66
2023/07/17 03:49:53;;;;;;;19.58;18.42;;;;;;;-141.02;88.85;44372.09;5136040;27;20189;-64
2023/07/17 03:52:21;;;;;;;19.90;18.70;;;;;;;-141.02;87.45;44544.94;5135429;27;20227;-66
2023/07/17 03:54:49;;;;;;;20.08;18.88;;;;;;;-141.02;86.63;44744.72;5135089;27;20283;-66
2023/07/17 03:57:16;;;;;;;20.25;19.05;;;;;;;-141.02;85.79;44854.19;5134907;27;20686;-64
2023/07/17 03:59:53;;;;;;;19.52;18.42;;;;;;;-141.02;84.77;44852.28;5135020;27;20283;-62
2023/07/17 04:02:20;;;;;;;19.80;18.70;;;;;;;-141.02;84.62;45005.94;5134804;27;20299;-63
2023/07/17 04:04:47;;;;;;;20.38;19.17;;;;;;;-141.02;83.96;45025.16;5135159;27;20275;-59
2023/07/17 04:07:14;;;;;;;19.73;18.52;;;;;;;-141.02;83.35;45203.81;5134771;27;20188;-64
2023/07/17 04:09:41;;;;;;;19.83;18.63;;;;;;;-141.02;82.99;45280.66;5134790;27;20275;-58
2023/07/17 04:12:10;;;;;;;20.58;19.38;;;;;;;-141.02;82.61;45424.75;5135088;27;20227;-63
2023/07/17 04:14:37;;;;;;;20.33;19.13;;;;;;;-141.02;81.56;45532.34;5134564;27;20749;-61
2023/07/17 04:17:06;;;;;;;20.42;19.23;;;;;;;-141.02;80.81;45636.09;5134734;27;20192;-56
2023/07/17 04:19:33;;;;;;;20.10;18.90;;;;;;;-141.02;79.67;45709.09;5134472;27;20203;-63
2023/07/17 04:22:00;;;;;;;20.05;18.85;;;;;;;-141.02;79.35;45812.88;5134596;27;20305;-64
2023/07/17 04:24:27;;;;;;;20.20;19.00;;;;;;;-141.02;79.17;45736.00;5134605;27;20720;-61
2023/07/17 04:26:54;;;;;;;20.13;18.92;;;;;;;-141.02;78.25;45970.44;5134620;27;20231;-60
2023/07/17 04:29:24;;;;;;;20.35;19.15;;;;;;;-141.02;77.02;46101.09;5134684;27;20282;-57
2023/07/17 04:31:51;;;;;;;20.80;19.50;;;;;;;-141.02;77.91;46454.69;5134315;27;20737;-59
2023/07/17 04:34:18;;;;;;;20.85;19.55;;;;;;;-141.02;75.87;46666.09;5134235;27;20608;-62
2023/07/17 04:36:46;;;;;;;21.23;19.92;;;;;;;-141.02;73.16;46735.28;5134491;27;20192;-57
2023/07/17 04:39:13;;;;;;;21.50;20.20;;;;;;;-141.02;73.25;46827.53;5134551;27;20195;-59
2023/07/17 04:41:40;;;;;;;21.17;19.88;;;;;;;-141.02;71.64;46537.31;5134419;27;20192;-59
2023/07/17 04:44:07;;;;;;;20.90;19.60;;;;;;;-141.02;71.36;46885.19;5134277;27;20311;-57
2023/07/17 04:46:35;;;;;;;20.98;19.67;;;;;;;-141.02;72.19;47577.22;5134552;27;20634;-64
2023/07/17 04:49:03;;;;;;;20.35;19.05;;;;;;;-141.02;72.55;47965.56;5134233;27;20613;-60
2023/07/17 04:51:30;;;;;;;20.75;19.45;;;;;;;-141.02;70.83;48196.31;5133891;27;20207;-62
2023/07/17 04:53:57;;;;;;;20.73;19.42;;;;;;;-141.02;70.14;48496.28;5133851;27;20242;-60
2023/07/17 04:56:25;;;;;;;20.80;19.50;;;;;;;-141.02;70.28;49142.44;5134149;27;20620;-64
2023/07/17 04:58:52;;;;;;;20.70;19.42;;;;;;;-141.02;67.35;48450.13;5134139;27;20571;-61
2023/07/17 05:01:19;;;;;;;20.45;19.15;;;;;;;-141.02;67.25;48573.19;5134005;27;20621;-59
2023/07/17 05:03:47;;;;;;;20.30;19.10;;;;;;;-141.02;67.71;48130.94;5133918;27;20318;-57
2023/07/17 05:06:14;;;;;;;20.98;19.67;;;;;;;-141.02;68.61;48086.69;5133910;27;20287;-57
2023/07/17 05:08:41;;;;;;;20.85;19.63;;;;;;;-141.02;68.63;48180.91;5134235;27;20249;-63
2023/07/17 05:11:09;;;;;;;21.05;19.75;;;;;;;-141.02;67.11;47727.16;5133976;27;20378;-56
2023/07/17 05:13:36;;;;;;;21.17;19.88;;;;;;;-141.02;68.58;47646.41;5133821;27;20203;-63
2023/07/17 05:16:03;;;;;;;21.50;20.20;;;;;;;-141.02;70.40;47617.59;5133857;27;20196;-60
2023/07/17 05:18:30;;;;;;;21.30;20.00;;;;;;;-141.02;70.71;47046.66;5133440;27;20188;-64
2023/07/17 05:20:59;;;;;;;21.02;19.83;;;;;;;-141.02;73.64;47531.06;5133507;27;20655;-62
2023/07/17 05:23:26;;;;;;;20.80;19.60;;;;;;;-141.02;72.83;46958.25;5133666;27;20310;-62
2023/07/17 05:25:55;;;;;;;20.95;19.75;;;;;;;-141.02;72.38;47162.00;5133352;27;20228;-61
2023/07/17 05:28:22;;;;;;;20.63;19.42;;;;;;;-141.02;70.23;46979.38;5133583;27;20278;-64
2023/07/17 05:30:52;;;;;;;20.45;19.25;;;;;;;-141.02;72.10;47088.94;5133219;27;20283;-61
2023/07/17 05:33:19;;;;;;;20.60;19.40;;;;;;;-141.02;72.54;47008.22;5133301;27;20658;-59
2023/07/17 05:35:46;;;;;;;20.67;19.48;;;;;;;-141.02;71.74;46839.06;5133896;27;20630;-64
2023/07/17 05:38:14;;;;;;;20.83;19.63;;;;;;;-141.02;72.42;46844.84;5133517;27;20220;-56
2023/07/17 05:40:41;;;;;;;21.42;20.23;;;;;;;-141.02;76.21;47169.69;5133735;27;20265;-64
2023/07/17 05:43:09;;;;;;;21.42;20.23;;;;;;;-141.02;73.46;46902.50;5133274;27;20269;-59
2023/07/17 05:45:36;;;;;;;21.00;19.80;;;;;;;-141.02;71.38;46685.31;5133140;27;20283;-57
2023/07/17 05:48:03;;;;;;;20.85;19.65;;;;;;;-141.02;71.66;46612.28;5133016;27;20200;-63
2023/07/17 05:50:30;;;;;;;21.02;19.83;;;;;;;-141.02;72.38;46712.22;5133393;27;20275;-59
2023/07/17 05:52:58;;;;;;;20.88;19.67;;;;;;;-141.02;73.02;46637.25;5133251;27;20309;-58
2023/07/17 05:55:26;;;;;;;21.00;19.80;;;;;;;-141.02;74.33;45839.75;5133293;27;20196;-56
2023/07/17 05:57:53;;;;;;;20.55;19.45;;;;;;;-141.02;78.12;46525.78;5133383;27;20273;-59
2023/07/17 06:00:21;;;;;;;20.15;19.05;;;;;;;-141.02;78.46;47050.50;5132851;27;20228;-56
2023/07/17 06:02:49;;;;;;;20.67;19.52;;;;;;;-141.02;77.88;46833.31;5132736;27;20654;-62
2023/07/17 06:05:16;;;;;;;20.20;19.10;;;;;;;-141.02;78.28;47096.63;5136834;27;20288;-58
2023/07/17 06:07:43;;;;;;;20.60;19.40;;;;;;;-141.02;77.81;47179.28;5137423;27;20228;-58
2023/07/17 06:10:12;;;;;;;20.80;19.60;;;;;;;-141.02;72.87;46687.22;5137399;27;20197;-57
2023/07/17 06:12:41;;;;;;;20.00;18.90;;;;;;;-141.02;72.51;46819.84;5137237;27;20235;-56
2023/07/17 06:15:09;;;;;;;20.77;19.58;;;;;;;-141.02;74.92;47115.84;5137362;27;20435;-57
2023/07/17 06:17:37;;;;;;;20.95;19.75;;;;;;;-141.02;72.51;47035.13;5137193;27;20249;-58
2023/07/17 06:20:06;;;;;;;20.67;19.48;;;;;;;-141.02;70.98;46739.13;5136708;27;20756;-61
2023/07/17 06:22:33;;;;;;;20.75;19.55;;;;;;;-141.02;72.71;47035.13;5137065;27;20238;-56
2023/07/17 06:25:00;;;;;;;21.10;19.90;;;;;;;-141.02;72.99;46758.34;5137074;27;20266;-57
2023/07/17 06:27:27;;;;;;;20.67;19.48;;;;;;;-141.02;74.14;47227.34;5136748;27;20227;-57
2023/07/17 06:29:56;;;;;;;21.15;19.95;;;;;;;-141.02;71.88;46965.94;5137540;27;20204;-64
2023/07/17 06:32:24;;;;;;;21.08;19.88;;;;;;;-141.02;70.78;47010.13;5136681;27;20662;-59
2023/07/17 06:34:51;;;;;;;21.55;20.25;;;;;;;-141.02;69.99;47511.84;5136542;27;20587;-57
2023/07/17 06:37:18;;;;;;;21.77;20.48;;;;;;;-141.02;66.91;47062.03;5136584;27;20257;-60
2023/07/17 06:39:45;;;;;;;21.90;20.60;;;;;;;-141.02;66.87;47704.09;5136797;27;20245;-58
2023/07/17 06:42:12;;;;;;;22.05;20.75;;;;;;;-141.02;67.32;48044.41;5136670;27;20192;-57
2023/07/17 06:44:39;;;;;;;22.13;20.83;;;;;;;-141.02;66.39;47563.75;5136365;27;20392;-61
2023/07/17 06:47:08;;;;;;;22.55;21.25;;;;;;;-141.02;64.16;47919.44;5136560;27;20200;-58
2023/07/17 06:49:35;;;;;;;22.15;20.85;;;;;;;-141.02;65.11;47584.91;5136662;27;20196;-59
2023/07/17 06:52:03;;;;;;;22.20;20.85;;;;;;;-141.02;65.55;47448.41;5136562;27;20189;-60
2023/07/17 06:54:30;;;;;;;22.50;21.20;;;;;;;-141.02;66.10;47302.31;5136534;27;20279;-57
2023/07/17 06:56:57;;;;;;;22.13;20.83;;;;;;;-141.02;65.23;47185.06;5136563;27;20637;-64
2023/07/17 06:59:28;;;;;;;21.90;20.60;;;;;;;-141.02;65.31;47400.34;5136446;27;20228;-60
2023/07/17 07:01:55;;;;;;;21.80;20.55;;;;;;;-141.02;66.74;47719.47;5136145;27;20238;-65
2023/07/17 07:04:24;;;;;;;21.83;20.60;;;;;;;-141.02;64.37;47700.25;5136176;27;20583;-62
2023/07/17 07:06:51;;;;;;;22.10;20.80;;;;;;;-141.02;63.55;47669.50;5136043;27;20756;-58
2023/07/17 07:09:18;;;;;;;21.95;20.75;;;;;;;-141.02;63.45;48253.97;5135870;27;20238;-64
2023/07/17 07:11:45;;;;;;;22.17;20.88;;;;;;;-141.02;62.52;47907.88;5135989;27;20239;-59
2023/07/17 07:14:12;;;;;;;22.77;21.48;;;;;;;-141.02;62.71;47800.22;5135585;27;20192;-60
2023/07/17 07:16:39;;;;;;;22.45;21.15;;;;;;;-141.02;62.50;47558.00;5135752;27;20239;-61
2023/07/17 07:19:06;;;;;;;22.58;21.27;;;;;;;-141.02;64.86;49180.91;5136064;27;20283;-59
2023/07/17 07:21:34;;;;;;;22.08;20.77;;;;;;;-141.02;64.65;48736.66;5135572;27;20236;-65
2023/07/17 07:24:03;;;;;;;21.67;20.38;;;;;;;-141.02;63.08;48000.19;5135634;27;20699;-65
2023/07/17 07:26:31;;;;;;;21.40;20.20;;;;;;;-141.02;64.09;48919.34;5135838;27;20200;-56
2023/07/17 07:28:58;;;;;;;22.60;21.30;;;;;;;-141.02;61.57;48115.53;5136160;27;20200;-62
2023/07/17 07:31:25;;;;;;;21.73;20.52;;;;;;;-141.02;61.76;47719.47;5135803;27;20291;-58
2023/07/17 07:33:52;;;;;;;21.40;20.20;;;;;;;-141.02;61.21;48207.84;5135398;27;20236;-60
2023/07/17 07:36:19;;;;;;;22.63;21.23;;;;;;;-141.02;59.48;47473.41;5135711;27;20200;-64
2023/07/17 07:38:48;;;;;;;22.25;20.95;;;;;;;-141.02;60.99;47844.44;5135720;27;20275;-59
2023/07/17 07:41:17;;;;;;;21.55;20.25;;;;;;;-141.02;61.91;48388.59;5135891;27;20249;-62
2023/07/17 07:43:44;;;;;;;22.45;21.15;;;;;;;-141.02;62.14;48473.19;5135523;27;20236;-63
2023/07/17 07:46:11;;;;;;;22.23;20.92;;;;;;;-141.02;59.54;48038.63;5135278;27;20228;-62
2023/07/17 07:48:38;;;;;;;22.85;21.45;;;;;;;-141.02;60.24;48204.00;5135274;27;20674;-60
2023/07/17 07:51:05;;;;;;;23.05;21.67;;;;;;;-141.02;60.59;48261.69;5135654;27;20226;-57
2023/07/17 07:53:32;;;;;;;22.73;21.42;;;;;;;-141.02;60.54;49298.25;5135187;27;20239;-59
2023/07/17 07:56:01;;;;;;;22.40;21.10;;;;;;;-141.02;60.71;48980.91;5135626;27;20228;-57
2023/07/17 07:58:28;;;;;;;21.77;20.48;;;;;;;-141.02;60.21;48423.19;5135030;27;20654;-58
2023/07/17 08:00:55;;;;;;;22.20;20.88;;;;;;;-141.02;59.53;48336.66;5135272;27;20228;-64
2023/07/17 08:03:22;;;;;;;22.10;20.80;;;;;;;-141.02;60.60;49184.75;5134768;27;20196;-57
2023/07/17 08:05:49;;;;;;;21.77;20.48;;;;;;;-141.02;59.44;49009.75;5134989;27;20192;-60
2023/07/17 08:08:17;;;;;;;21.92;20.63;;;;;;;-141.02;60.49;48852.03;5134746;27;20224;-57
2023/07/17 08:10:44;;;;;;;22.95;21.55;;;;;;;-141.02;60.92;49804.16;5134763;27;20196;-63
2023/07/17 08:13:12;;;;;;;22.77;21.38;;;;;;;-141.02;60.53;49373.25;5135137;27;20279;-56
2023/07/17 08:15:39;;;;;;;24.17;22.67;;;;;;;-141.02;57.49;48669.34;5135484;27;20235;-61
2023/07/17 08:18:06;;;;;;;22.95;21.55;;;;;;;-141.02;58.81;49354.03;5134656;27;20249;-58
2023/07/17 08:20:33;;;;;;;66.30;62.70;;;;;;;-141.02;59.53;50158.13;5134661;27;20223;-56
2023/07/17 08:23:00;;;;;;;82.45;78.05;;;;;;;-141.02;58.60;51060.56;5134794;27;20228;-59
2023/07/17 08:25:28;;;;;;;83.07;78.47;;;;;;;-141.02;56.68;49606.00;5134553;27;20224;-61
2023/07/17 08:27:55;;;;;;;21.83;20.42;;;;;;;-141.02;58.18;50442.88;5133839;27;20671;-60
2023/07/17 08:30:24;;;;;;;21.63;20.30;;;;;;;-141.02;57.08;50100.41;5135318;27;20261;-61
2023/07/17 08:32:51;;;;;;;22.77;21.38;;;;;;;-141.02;57.12;50816.19;5134370;27;20287;-63
2023/07/17 08:35:18;;;;;;;22.40;21.00;;;;;;;-141.02;57.25;50500.59;5134628;27;20248;-62
2023/07/17 08:37:45;;;;;;;22.27;20.88;;;;;;;-141.02;55.95;50612.22;5134157;27;20270;-64
2023/07/17 08:40:12;;;;;;;22.60;21.20;;;;;;;-141.02;57.44;50762.28;5134239;27;20283;-62
2023/07/17 08:42:45;;;;;;;21.98;20.63;;;;;;;-141.02;55.95;51093.28;5134154;27;20195;-65
2023/07/17 08:45:13;;;;;;;22.42;21.02;;;;;;;-141.02;58.10;50643.00;5134405;27;20662;-64
2023/07/17 08:47:42;;;;;;;22.30;20.90;;;;;;;-141.02;59.34;52739.09;5134030;27;20193;-58
2023/07/17 08:50:12;;;;;;;21.83;20.42;;;;;;;-141.02;55.66;51526.31;5133978;27;20220;-63
2023/07/17 08:52:40;;;;;;;22.00;20.60;;;;;;;-141.02;56.49;52741.03;5134285;27;20241;-61
2023/07/17 08:55:08;;;;;;;23.23;21.83;;;;;;;-141.02;55.79;53544.00;5134105;27;20224;-65
2023/07/17 08:57:36;;;;;;;23.55;22.05;;;;;;;-141.02;52.93;51832.34;5134161;27;20192;-64
2023/07/17 09:00:05;;;;;;;22.65;21.20;;;;;;;-141.02;53.66;50764.22;5133794;27;20677;-57
2023/07/17 09:02:33;;;;;;;21.85;20.48;;;;;;;-141.02;54.80;51464.72;5133797;27;20228;-57
2023/07/17 09:05:03;;;;;;;59.28;55.58;;;;;;;-141.02;55.40;50633.38;5133666;27;20710;-58
2023/07/17 09:07:30;;;;;;;84.18;79.68;;;;;;;-141.02;56.48;51191.44;5133970;27;20241;-62
2023/07/17 09:10:22;;;;;;;22.95;21.55;;;;;;;-141.02;56.18;51422.38;5134005;27;20188;-65
2023/07/17 09:12:52;;;;;;;22.80;21.33;;;;;;;-141.02;54.01;51012.47;5123275;27;20189;-64
2023/07/17 09:15:19;;;;;;;24.10;22.60;;;;;;;-141.02;54.47;52286.66;5133587;27;20191;-64
2023/07/17 09:17:46;;;;;;;22.90;21.40;;;;;;;-141.02;52.67;51555.19;5133851;27;20197;-65
2023/07/17 09:20:16;;;;;;;23.23;21.73;;;;;;;-141.02;54.46;51863.16;5133469;27;20332;-60
2023/07/17 09:22:44;;;;;;;22.13;20.73;;;;;;;-141.02;54.37;52587.00;5133649;27;20781;-64
2023/07/17 09:25:12;;;;;;;22.27;20.88;;;;;;;-141.02;52.88;52036.41;5133287;27;20234;-64
2023/07/17 09:27:46;;;;;;;22.10;20.70;;;;;;;-141.02;52.93;51312.69;5133641;27;20279;-62
2023/07/17 09:30:15;;;;;;;22.65;21.15;;;;;;;-141.02;53.49;52086.44;5133588;27;20222;-62
2023/07/17 09:32:43;;;;;;;22.45;21.05;;;;;;;-141.02;52.73;51370.41;5133467;27;20204;-62
2023/07/17 09:35:12;;;;;;;22.27;20.88;;;;;;;-141.02;53.39;51999.81;5133524;27;20218;-64
2023/07/17 09:37:42;;;;;;;22.75;21.25;;;;;;;-141.02;52.77;51224.16;5133100;27;20188;-57
2023/07/17 09:40:11;;;;;;;22.35;20.95;;;;;;;-141.02;53.69;51589.84;5133115;27;20641;-62
2023/07/17 09:42:39;;;;;;;22.55;21.15;;;;;;;-141.02;54.88;51770.75;5133373;27;20220;-59
2023/07/17 09:45:07;;;;;;;22.40;21.00;;;;;;;-141.02;53.71;52382.91;5132900;27;20315;-64
2023/07/17 09:47:36;;;;;;;22.95;21.52;;;;;;;-141.02;52.56;52575.44;5133339;27;20195;-61
2023/07/17 09:50:03;;;;;;;22.85;21.35;;;;;;;-141.02;52.63;54146.84;5132899;27;20582;-62
2023/07/17 09:52:32;;;;;;;23.35;21.85;;;;;;;-141.02;53.52;52394.47;5133207;27;20235;-62
2023/07/17 09:55:01;;;;;;;22.40;21.00;;;;;;;-141.02;54.78;50762.28;5132940;27;20275;-66
2023/07/17 09:57:30;;;;;;;21.80;20.40;;;;;;;-141.02;55.88;53611.41;5132935;28;20188;-65
2023/07/17 09:59:59;;;;;;;22.30;20.90;;;;;;;-141.02;53.49;55329.75;5132899;28;20188;-65
2023/07/17 10:02:34;;;;;;;22.42;21.02;;;;;;;-141.02;52.79;54383.78;5132827;28;20737;-63
2023/07/17 10:05:05;;;;;;;22.52;21.13;;;;;;;-141.02;51.61;53322.53;5133146;28;20658;-65
2023/07/17 10:07:36;;;;;;;22.75;21.35;;;;;;;-141.02;53.01;54950.16;5133149;28;20188;-66
2023/07/17 10:10:06;;;;;;;22.77;21.38;;;;;;;-141.02;52.09;54836.50;5133431;27;20258;-63
2023/07/17 10:12:34;;;;;;;23.02;21.52;;;;;;;-141.02;52.38;54726.69;5132770;27;20789;-66
2023/07/17 10:15:03;;;;;;;22.80;21.30;;;;;;;-141.02;51.85;54462.75;5132706;28;20685;-64
2023/07/17 10:17:31;;;;;;;22.92;21.42;;;;;;;-141.02;51.49;55216.06;5132995;28;20200;-61
2023/07/17 10:20:00;;;;;;;22.40;20.90;;;;;;;-141.02;50.99;57449.94;5132807;28;20636;-65
2023/07/17 10:22:35;;;;;;;22.80;21.30;;;;;;;-141.02;51.31;57851.00;5132633;27;20650;-63
2023/07/17 10:25:23;;;;;;;23.33;21.83;;;;;;;-141.02;49.40;55761.38;5132513;27;20223;-62
2023/07/17 10:27:54;;;;;;;22.75;21.25;;;;;;;-141.02;51.43;56347.28;5132685;28;20188;-60
2023/07/17 10:30:25;;;;;;;23.58;22.08;;;;;;;-141.02;50.19;53440.00;5133215;28;20184;-65
2023/07/17 10:33:10;;;;;;;22.95;21.45;;;;;;;-141.02;51.19;51689.91;5132850;28;20573;-66
2023/07/17 10:35:48;;;;;;;23.70;22.20;;;;;;;-141.02;51.72;53923.41;5132834;27;20707;-65
2023/07/17 10:38:16;;;;;;;23.25;21.75;;;;;;;-141.02;50.79;54133.38;5132777;28;20718;-66
2023/07/17 10:40:46;;;;;;;23.13;21.63;;;;;;;-141.02;50.64;53682.66;5132480;28;20196;-64
2023/07/17 10:43:19;;;;;;;22.83;21.35;;;;;;;-141.02;51.29;54545.59;5132780;28;20232;-61
2023/07/17 10:45:48;;;;;;;23.30;21.80;;;;;;;-141.02;49.09;55067.69;5132770;28;20303;-67
2023/07/17 10:48:15;;;;;;;23.63;22.13;;;;;;;-141.02;49.30;55206.41;5132648;28;20224;-65
2023/07/17 10:50:49;;;;;;;23.08;21.58;;;;;;;-141.02;49.98;53480.44;5135388;27;20203;-64
2023/07/17 10:53:16;;;;;;;23.55;22.05;;;;;;;-141.02;49.94;54204.63;5136261;27;20638;-61
2023/07/17 10:55:47;;;;;;;22.92;21.42;;;;;;;-141.02;51.43;56150.69;5136522;27;20247;-63
2023/07/17 10:58:15;;;;;;;23.05;21.58;;;;;;;-141.02;49.46;58082.41;5136192;27;20192;-68
2023/07/17 11:00:43;;;;;;;23.58;22.08;;;;;;;-141.02;48.80;56428.22;5136127;27;20199;-67
2023/07/17 11:03:10;;;;;;;23.38;21.98;;;;;;;-141.02;49.29;55639.97;5136307;27;20192;-66
2023/07/17 11:05:38;;;;;;;23.00;21.60;;;;;;;-141.02;48.77;53522.81;5136225;27;20227;-65
2023/07/17 11:08:06;;;;;;;23.75;22.25;;;;;;;-141.02;48.84;54817.22;5136276;27;20195;-60
2023/07/17 11:10:33;;;;;;;23.88;22.38;;;;;;;-141.02;49.02;55474.25;5135952;27;20239;-63
2023/07/17 11:13:04;;;;;;;23.92;22.42;;;;;;;-141.02;48.57;54790.25;5135917;27;20741;-66
2023/07/17 11:15:32;;;;;;;24.48;22.77;;;;;;;-141.02;48.88;55422.22;5135845;27;20728;-66
2023/07/17 11:18:00;;;;;;;23.40;21.80;;;;;;;-141.02;47.97;55341.28;5136301;27;20219;-67
2023/07/17 11:20:27;;;;;;;24.33;22.63;;;;;;;-141.02;48.27;55408.75;5135715;27;20223;-66
2023/07/17 11:22:54;;;;;;;24.40;22.70;;;;;;;-141.02;48.83;56035.03;5136067;27;20282;-66
2023/07/17 11:25:21;;;;;;;24.02;22.52;;;;;;;-141.02;47.04;54851.91;5135580;27;20318;-66
2023/07/17 11:27:50;;;;;;;23.77;22.17;;;;;;;-141.02;48.86;54805.66;5135926;27;20184;-65
2023/07/17 11:30:21;;;;;;;23.90;22.27;;;;;;;-141.02;48.27;55033.00;5135858;27;20275;-66
2023/07/17 11:33:02;;;;;;;24.58;22.88;;;;;;;-141.02;48.32;55435.72;5135834;27;20241;-65
2023/07/17 11:35:45;;;;;;;25.08;23.38;;;;;;;-141.02;48.39;56900.50;5135822;27;20195;-63
2023/07/17 11:38:15;;;;;;;25.23;23.52;;;;;;;-141.02;47.51;56256.69;5135471;27;20664;-64
2023/07/17 11:40:53;;;;;;;24.95;23.25;;;;;;;-141.02;47.42;53996.59;5135523;27;20188;-66
2023/07/17 11:43:25;;;;;;;25.55;23.75;;;;;;;-141.02;48.40;53648.00;5135597;27;20649;-65
2023/07/17 11:45:55;;;;;;;25.63;23.83;;;;;;;-141.02;49.55;52490.72;5135496;27;20228;-66
2023/07/17 11:48:23;;;;;;;25.48;23.67;;;;;;;-141.02;49.40;53653.78;5135157;27;20233;-63
2023/07/17 11:50:50;;;;;;;25.15;23.35;;;;;;;-141.02;48.41;52151.91;5135436;27;20346;-66
2023/07/17 11:53:18;;;;;;;25.20;23.40;;;;;;;-141.02;48.95;53187.75;5135860;27;20345;-66
2023/07/17 11:55:45;;;;;;;24.05;22.35;;;;;;;-141.02;49.60;56655.69;5135397;27;20279;-66
2023/07/17 11:58:15;;;;;;;25.55;23.75;;;;;;;-141.02;47.57;55268.06;5134988;27;20654;-67
2023/07/17 12:00:42;;;;;;;25.60;23.80;;;;;;;-141.02;46.51;54917.41;5134322;27;20231;-66
2023/07/17 12:03:11;;;;;;;25.38;23.58;;;;;;;-141.02;46.33;55472.31;5134799;27;20224;-66
2023/07/17 12:05:38;;;;;;;25.20;23.40;;;;;;;-141.02;45.60;55609.16;5135145;27;20673;-64
2023/07/17 12:08:06;;;;;;;25.17;23.38;;;;;;;-141.02;47.40;58676.41;5134783;27;20238;-66